Airfield :
LOGIN :

Register | Disclaimer

   EN    FR    IT 

 










Legend :    VFR   Marginal VFR   IFR   Intensive IFR   Very Intensive IFR
Visi :
Ceiling :
>= 8 km
>= 3000ft
5 to 8 km
1000 to 3000 ft
1500m to 5 km
500 to 1000 ft
800 to 1500m
200 to 500 ft
< 800m
< 200 ft
Symbols :   Thunderstorms  Fog  Heavy snow  Heavy precipitations  Wind > 20 kt
SIGMETs :     Misc.  Thunderstorms  Icing  Turbulence  Mountain Waves  Volcanic Ashes






- Airport Elevation : 17 ft
- IATA code : DND


EGPN - Dundee

CURRENT METAR :
  • 221320Z 30007KT 9999 FEW040 11/02 Q1017

EXPIRED METARs :
  • 221250Z 30006KT 250V330 9999 FEW040 11/02 Q1017
  • 221220Z 30008KT 9999 FEW040 10/02 Q1017
  • 221150Z 30009KT 260V340 9999 FEW048 11/02 Q1017
  • 221120Z 30005KT 260V350 9999 FEW048 10/01 Q1016
  • 221050Z 32004KT 290V350 9999 FEW032 10/03 Q1016
  • 221020Z 28004KT 250V320 9999 FEW032 10/03 Q1015

TAF TAF EGPN
Valid from the 22 at 12:00 until the 22 at 21:00 UTC


221056Z 2212/2221 30005KT 9999 FEW035



MET'MAP, your aeronautical weather chart ! - Copyright ORBIFLY December 2007 - Disclaimer

ORBIFLY MET'MAP TEAM :

Programming & Development : Alexandra Zaïnal
Concept & original design : Baudouin d'Aumeries
Assistance for programming : Marc-Olivier Méhu
Technical & hardware support : Manuel Goepfert

Contact : metmap@orbifly.com




SOURCES & CREDITS :

   NOAA